Time;durP1;ratioP1;P1;durP2;ratioP2;P2;SDS_P1;SDS_P2;PMS_P1;PMS_P2;Temp;Humidity;BMP_temperature;BMP_pressure;BME280_temperature;BME280_humidity;BME280_pressure;Samples;Min_cycle;Max_cycle;Signal;HPM_P1;HPM_P2
2023/09/08 00:02:05;;;;;;;1.20;0.80;;;;;;;23.05;53.05;100091.50;4977062;28;20026;-91
2023/09/08 00:04:32;;;;;;;3.10;1.55;;;;;;;23.11;54.00;100116.31;4973943;28;20125;-91
2023/09/08 00:06:58;;;;;;;3.35;1.27;;;;;;;22.99;54.88;100085.63;4973697;28;20038;-92
2023/09/08 00:09:24;;;;;;;0.63;0.63;;;;;;;22.93;54.14;100080.63;4955947;28;20031;-92
2023/09/08 00:11:49;;;;;;;1.25;0.82;;;;;;;22.96;54.12;100112.72;4970953;28;20026;-91
2023/09/08 00:14:15;;;;;;;1.50;0.82;;;;;;;23.00;54.52;100122.31;4975017;28;20496;-93
2023/09/08 00:16:42;;;;;;;1.92;1.00;;;;;;;22.96;54.98;100110.03;4975384;28;20035;-92
2023/09/08 00:19:08;;;;;;;3.00;1.40;;;;;;;22.79;55.44;100108.34;4975577;28;20113;-92
2023/09/08 00:21:34;;;;;;;0.90;0.88;;;;;;;22.82;54.73;100106.31;4972992;28;20096;-94
2023/09/08 00:24:00;;;;;;;2.95;1.85;;;;;;;22.83;55.07;100124.22;4975411;28;20105;-93
2023/09/08 00:26:26;;;;;;;0.47;0.43;;;;;;;22.62;55.85;100103.97;4993038;28;20030;-93
2023/09/08 00:28:51;;;;;;;2.42;1.48;;;;;;;22.63;55.40;100111.03;4992705;28;20037;-92
2023/09/08 00:31:17;;;;;;;2.95;0.80;;;;;;;22.38;55.89;100072.16;4986349;28;20031;-91
2023/09/08 00:33:43;;;;;;;2.22;1.33;;;;;;;22.42;56.84;100108.66;4955643;28;20097;-91
2023/09/08 00:36:09;;;;;;;0.98;0.85;;;;;;;22.64;56.61;100132.47;4972883;28;20505;-92
2023/09/08 00:38:35;;;;;;;1.20;1.08;;;;;;;22.44;57.33;100093.31;4954209;28;20031;-91
2023/09/08 00:41:17;;;;;;;1.85;1.00;;;;;;;22.52;57.77;100100.94;4955615;28;20037;-90
2023/09/08 00:43:42;;;;;;;2.78;1.42;;;;;;;22.57;57.73;100114.97;4973136;28;20030;-90
2023/09/08 00:46:09;;;;;;;1.83;1.20;;;;;;;22.27;58.61;100075.44;4972878;28;20049;-91
2023/09/08 00:48:35;;;;;;;2.92;1.08;;;;;;;22.63;59.57;100133.44;4973255;28;20027;-91
2023/09/08 00:51:01;;;;;;;1.30;0.82;;;;;;;22.51;59.67;100105.44;4972371;28;20057;-90
2023/09/08 00:53:27;;;;;;;1.38;1.25;;;;;;;22.50;60.40;100118.97;4959367;28;20421;-92
2023/09/08 00:55:54;;;;;;;1.40;1.30;;;;;;;22.27;60.64;100110.38;4960226;28;20414;-89
2023/09/08 00:58:20;;;;;;;2.67;0.93;;;;;;;22.18;61.38;100100.16;4979847;28;20035;-92
2023/09/08 01:00:46;;;;;;;11.77;1.83;;;;;;;22.10;61.28;100100.56;4961066;28;20039;-90
2023/09/08 01:03:12;;;;;;;2.90;0.90;;;;;;;21.94;61.46;100103.28;4979762;28;20038;-90
2023/09/08 01:05:38;;;;;;;1.13;0.82;;;;;;;21.97;62.15;100105.78;4977945;28;20031;-90
2023/09/08 01:08:04;;;;;;;2.25;1.42;;;;;;;21.85;62.91;100081.44;4956228;28;20049;-92
2023/09/08 01:10:30;;;;;;;3.05;1.77;;;;;;;21.94;63.14;100089.84;4955676;28;20519;-91
2023/09/08 01:12:55;;;;;;;1.38;1.27;;;;;;;22.07;63.33;100108.81;4975214;28;20134;-91
2023/09/08 01:15:21;;;;;;;1.38;1.05;;;;;;;21.92;63.53;100090.88;4973328;28;20038;-91
2023/09/08 01:17:46;;;;;;;7.68;1.52;;;;;;;21.63;63.92;100042.38;4972465;28;20030;-91
2023/09/08 01:20:24;;;;;;;2.22;1.50;;;;;;;22.02;64.31;100100.16;4972784;28;20093;-91
2023/09/08 01:23:02;;;;;;;6.30;2.00;;;;;;;21.90;64.92;100112.44;4955335;28;20520;-90
2023/09/08 01:25:29;;;;;;;4.15;1.20;;;;;;;21.47;62.87;100039.59;4974345;28;20039;-91
2023/09/08 01:27:57;;;;;;;1.02;0.85;;;;;;;21.65;63.84;100104.88;4954987;28;20042;-90
2023/09/08 01:30:26;;;;;;;1.63;1.02;;;;;;;21.52;64.46;100077.84;4972602;28;20035;-92
2023/09/08 01:32:53;;;;;;;1.83;1.23;;;;;;;21.72;64.64;100083.91;4982497;28;20034;-90
2023/09/08 01:35:19;;;;;;;2.38;1.15;;;;;;;21.66;65.38;100086.94;4961786;28;20092;-92
2023/09/08 01:37:46;;;;;;;5.93;1.73;;;;;;;21.75;65.15;100089.13;4985457;28;20038;-92
2023/09/08 01:40:13;;;;;;;7.32;1.58;;;;;;;21.54;64.76;100056.28;4991232;28;20054;-92
2023/09/08 01:42:39;;;;;;;3.20;2.20;;;;;;;21.82;64.48;100086.00;4974487;28;20489;-91
2023/09/08 01:45:05;;;;;;;0.98;0.90;;;;;;;21.77;64.82;100084.56;4991038;28;20608;-92
2023/09/08 01:47:31;;;;;;;0.57;0.57;;;;;;;21.62;64.41;100064.78;4984282;28;20039;-91
2023/09/08 01:49:56;;;;;;;1.40;1.00;;;;;;;21.39;65.64;100066.84;4971872;28;20041;-92
2023/09/08 01:52:22;;;;;;;1.38;1.05;;;;;;;21.55;65.73;100088.41;4974463;28;20125;-92
2023/09/08 01:54:47;;;;;;;2.47;1.48;;;;;;;21.52;66.14;100061.75;4973941;28;20499;-92
2023/09/08 01:57:13;;;;;;;0.65;0.57;;;;;;;21.49;66.22;100093.19;4990447;28;20042;-91
2023/09/08 01:59:38;;;;;;;1.23;1.10;;;;;;;21.07;66.08;100029.25;4989634;28;20121;-89
2023/09/08 02:02:04;;;;;;;1.65;0.77;;;;;;;21.31;66.88;100095.94;4991486;28;20089;-92
2023/09/08 02:04:29;;;;;;;1.67;1.20;;;;;;;21.31;67.84;100095.06;4991559;28;20030;-92
2023/09/08 02:06:55;;;;;;;2.65;1.45;;;;;;;21.39;67.91;100098.19;4973169;28;20420;-90
2023/09/08 02:09:20;;;;;;;2.10;1.60;;;;;;;21.07;68.43;100058.75;4980023;28;20097;-92
2023/09/08 02:11:46;;;;;;;2.50;1.45;;;;;;;21.30;69.19;100070.03;4971299;28;20082;-93
2023/09/08 02:14:11;;;;;;;1.92;1.38;;;;;;;21.11;69.86;100041.50;4968260;28;20043;-92
2023/09/08 02:16:37;;;;;;;7.60;2.88;;;;;;;21.33;70.87;100082.44;4973147;28;20039;-92
2023/09/08 02:19:02;;;;;;;4.30;3.55;;;;;;;21.15;70.80;100044.91;4962879;28;20567;-92
2023/09/08 02:21:30;;;;;;;2.30;1.52;;;;;;;21.55;71.21;100112.56;4970789;28;20039;-92
2023/09/08 02:23:55;;;;;;;4.30;1.77;;;;;;;21.52;71.13;100096.63;4938968;28;20097;-93
2023/09/08 02:26:23;;;;;;;4.70;2.50;;;;;;;21.33;71.77;100079.75;4954582;28;20071;-93
2023/09/08 02:28:49;;;;;;;2.17;1.95;;;;;;;21.28;72.33;100090.72;4956414;28;20489;-93
2023/09/08 02:31:14;;;;;;;7.65;2.30;;;;;;;21.39;72.17;100112.47;4954240;28;20031;-93
2023/09/08 02:33:40;;;;;;;1.75;1.17;;;;;;;21.39;71.60;100085.63;4973024;28;20146;-93
2023/09/08 02:36:06;;;;;;;14.27;3.28;;;;;;;21.40;71.70;100091.91;4954464;28;20054;-94
2023/09/08 02:38:32;;;;;;;2.53;1.83;;;;;;;21.36;72.10;100082.25;4954741;28;20073;-94
2023/09/08 02:40:59;;;;;;;2.55;1.60;;;;;;;21.27;72.46;100072.88;4956280;28;20042;-90
2023/09/08 02:43:24;;;;;;;6.78;2.25;;;;;;;20.96;72.60;100038.78;4953791;28;20042;-92
2023/09/08 02:45:50;;;;;;;2.40;1.55;;;;;;;21.26;72.98;100081.91;4971343;28;20039;-93
2023/09/08 02:48:16;;;;;;;3.47;1.67;;;;;;;20.84;73.04;100019.72;4953810;28;20490;-92
2023/09/08 02:50:42;;;;;;;6.28;2.00;;;;;;;21.31;73.41;100087.88;4961949;28;20045;-92
2023/09/08 02:53:07;;;;;;;2.47;1.75;;;;;;;21.04;73.76;100058.91;4973167;28;20043;-92
2023/09/08 02:55:33;;;;;;;3.45;2.03;;;;;;;21.02;73.94;100049.19;4978259;28;20129;-91
2023/09/08 02:57:58;;;;;;;5.07;2.47;;;;;;;21.27;73.62;100073.78;4971637;28;20085;-90
2023/09/08 03:00:24;;;;;;;3.20;2.05;;;;;;;21.10;73.63;100031.75;4971941;28;20516;-92
2023/09/08 03:02:50;;;;;;;2.55;1.73;;;;;;;21.28;73.46;100061.22;4974463;28;20038;-91
2023/09/08 03:05:15;;;;;;;2.65;1.90;;;;;;;21.41;73.38;100075.72;4974849;28;20031;-93
2023/09/08 03:07:41;;;;;;;2.90;1.60;;;;;;;20.95;74.12;100045.13;4974938;28;20041;-92
2023/09/08 03:10:07;;;;;;;2.75;1.83;;;;;;;20.80;74.19;100054.81;4975026;28;20035;-93
2023/09/08 03:12:47;;;;;;;4.47;1.67;;;;;;;21.02;74.28;100076.91;4989994;28;20035;-94
2023/09/08 03:15:17;;;;;;;3.55;1.83;;;;;;;21.36;74.00;100101.91;4995527;28;20045;-93
2023/09/08 03:17:44;;;;;;;1.83;1.48;;;;;;;21.13;73.70;100048.63;4978317;28;20030;-92
2023/09/08 03:20:13;;;;;;;2.63;2.05;;;;;;;20.92;73.59;100027.38;4976117;28;20030;-93
2023/09/08 03:22:39;;;;;;;4.55;1.75;;;;;;;20.95;73.45;100037.06;4976947;28;20030;-91
2023/09/08 03:25:05;;;;;;;2.97;2.08;;;;;;;21.08;73.81;100044.34;4994393;28;20030;-93
2023/09/08 03:27:32;;;;;;;5.43;2.75;;;;;;;20.97;74.22;100046.75;4977622;28;20408;-95
2023/09/08 03:30:06;;;;;;;3.50;1.60;;;;;;;21.41;74.67;100104.34;4977449;28;20034;-91
2023/09/08 03:33:14;;;;;;;2.60;1.92;;;;;;;21.31;75.23;100106.66;4977231;28;20378;-93
2023/09/08 03:35:39;;;;;;;2.42;1.98;;;;;;;21.00;75.59;100067.19;4993147;28;20038;-91
2023/09/08 03:38:12;;;;;;;3.47;3.15;;;;;;;20.84;75.43;100030.44;4994525;28;20394;-96
2023/09/08 03:41:33;;;;;;;2.42;1.77;;;;;;;21.26;75.84;100106.06;4961378;28;20521;-94
2023/09/08 03:51:17;;;;;;;1.35;1.25;;;;;;;20.64;77.16;100010.00;4897075;29;20068;-95
2023/09/08 03:54:05;;;;;;;7.70;2.85;;;;;;;21.27;77.03;100102.41;4880624;29;20059;-96
2023/09/08 03:56:33;;;;;;;3.85;2.33;;;;;;;21.43;76.47;100121.25;4897441;29;20169;-93
2023/09/08 03:59:06;;;;;;;1.73;1.50;;;;;;;21.13;76.87;100053.97;4896784;29;20051;-94
2023/09/08 04:01:32;;;;;;;2.00;1.13;;;;;;;20.99;77.21;100060.06;4880451;29;20043;-96
2023/09/08 04:04:00;;;;;;;2.78;1.63;;;;;;;20.86;77.42;100052.69;4896100;29;20071;-94
2023/09/08 04:06:27;;;;;;;3.35;2.15;;;;;;;20.95;76.92;100050.47;4880913;29;20033;-92
2023/09/08 04:08:52;;;;;;;3.55;1.88;;;;;;;20.74;77.87;100053.31;4895800;29;20519;-93
2023/09/08 04:11:18;;;;;;;2.65;2.08;;;;;;;20.74;78.70;100072.97;4896390;29;20040;-91
2023/09/08 04:13:43;;;;;;;5.10;2.17;;;;;;;20.70;78.84;100082.09;4878869;29;20076;-91
2023/09/08 04:16:09;;;;;;;2.15;1.85;;;;;;;20.90;78.72;100088.25;4895165;29;20044;-90
2023/09/08 04:18:34;;;;;;;2.92;1.67;;;;;;;20.74;79.03;100091.72;4894965;29;20040;-89
2023/09/08 04:21:00;;;;;;;2.53;1.63;;;;;;;20.91;78.54;100085.50;4889346;29;20044;-91
2023/09/08 04:23:25;;;;;;;2.50;1.67;;;;;;;20.94;77.91;100084.44;4881922;29;20613;-92
2023/09/08 04:25:51;;;;;;;2.22;1.80;;;;;;;20.97;77.32;100065.53;4893291;29;20149;-90
2023/09/08 04:28:16;;;;;;;2.67;2.10;;;;;;;21.15;76.74;100078.91;4960844;28;20057;-92
2023/09/08 04:30:49;;;;;;;4.68;1.38;;;;;;;21.35;76.69;100104.66;4993215;28;20080;-91
2023/09/08 04:33:36;;;;;;;3.92;1.55;;;;;;;21.48;76.68;100129.06;4993178;28;20037;-92
2023/09/08 04:36:01;;;;;;;4.05;2.60;;;;;;;21.36;76.44;100109.09;4992961;28;20041;-91
2023/09/08 04:38:27;;;;;;;3.95;2.47;;;;;;;21.14;75.84;100067.31;4993176;28;20034;-88
2023/09/08 04:40:52;;;;;;;3.20;1.73;;;;;;;21.36;75.55;100079.59;4993107;28;20044;-92
2023/09/08 04:43:19;;;;;;;3.03;1.30;;;;;;;21.35;74.05;100107.34;4993441;28;20045;-92
2023/09/08 04:45:45;;;;;;;1.63;1.50;;;;;;;21.33;74.22;100096.69;4993661;28;20486;-95
2023/09/08 04:48:10;;;;;;;3.78;1.77;;;;;;;21.45;73.32;100101.41;4992782;28;20152;-93
2023/09/08 04:50:58;;;;;;;4.80;1.75;;;;;;;21.74;73.07;100151.84;5007238;28;20572;-91
2023/09/08 04:53:23;;;;;;;5.97;1.52;;;;;;;21.52;73.12;100091.28;4978481;28;20444;-93
2023/09/08 04:55:49;;;;;;;2.63;1.20;;;;;;;21.59;72.59;100102.53;5005348;28;20157;-90
2023/09/08 04:58:14;;;;;;;3.05;1.35;;;;;;;21.91;71.38;100127.59;4972488;28;20058;-90
2023/09/08 05:00:40;;;;;;;1.50;1.27;;;;;;;22.08;69.58;100131.19;4972576;28;20154;-91
2023/09/08 05:03:06;;;;;;;2.92;1.70;;;;;;;22.22;69.67;100142.00;4971575;28;20030;-90
2023/09/08 05:05:32;;;;;;;2.83;1.38;;;;;;;22.45;69.35;100156.88;4971502;28;20653;-91
2023/09/08 05:07:58;;;;;;;5.28;1.02;;;;;;;22.69;68.70;100146.53;4965479;28;20030;-95
2023/09/08 05:10:23;;;;;;;1.10;0.85;;;;;;;22.44;66.47;100122.00;4954981;28;20122;-94
2023/09/08 05:12:49;;;;;;;3.35;1.27;;;;;;;22.82;66.40;100146.66;4973588;28;20082;-96
2023/09/08 05:15:16;;;;;;;1.38;1.25;;;;;;;22.82;65.15;100152.03;4971338;28;20481;-92
2023/09/08 05:17:43;;;;;;;4.20;1.98;;;;;;;23.07;64.75;100148.75;4971688;28;20037;-92
2023/09/08 05:20:09;;;;;;;1.95;1.35;;;;;;;23.22;64.16;100157.78;4979448;28;20132;-92
2023/09/08 05:22:35;;;;;;;3.30;1.25;;;;;;;22.98;63.47;100122.41;4981438;28;20552;-92
2023/09/08 05:25:00;;;;;;;1.38;1.08;;;;;;;23.10;62.85;100120.84;4950542;28;20057;-91
2023/09/08 05:27:26;;;;;;;1.73;1.40;;;;;;;23.03;62.76;100116.75;4970195;28;20454;-91
2023/09/08 05:29:51;;;;;;;2.42;1.33;;;;;;;23.40;62.87;100144.16;4969363;28;20121;-92
2023/09/08 05:32:17;;;;;;;2.92;2.15;;;;;;;23.43;61.27;100154.72;4953676;28;20060;-91
2023/09/08 05:34:42;;;;;;;3.25;1.85;;;;;;;23.22;61.51;100113.88;4971106;28;20351;-93
2023/09/08 05:37:08;;;;;;;9.52;1.85;;;;;;;23.74;61.59;100159.09;4952867;28;20133;-91
2023/09/08 05:39:34;;;;;;;3.03;1.35;;;;;;;23.51;60.69;100119.25;4970722;28;20042;-92
2023/09/08 05:41:59;;;;;;;2.00;1.17;;;;;;;23.42;60.38;100100.03;4971219;28;20054;-91
2023/09/08 05:44:25;;;;;;;2.38;1.55;;;;;;;23.80;60.96;100144.34;4970376;28;20030;-91
2023/09/08 05:46:52;;;;;;;10.70;2.25;;;;;;;23.87;59.75;100151.13;4970781;28;20030;-91
2023/09/08 05:49:20;;;;;;;3.20;1.17;;;;;;;24.20;60.40;100138.28;4972845;28;20074;-90
2023/09/08 05:51:46;;;;;;;1.52;1.00;;;;;;;24.86;59.21;100189.75;4986500;28;20061;-90
2023/09/08 05:54:12;;;;;;;3.55;1.35;;;;;;;24.88;58.32;100171.63;4975008;28;20076;-90
2023/09/08 05:56:38;;;;;;;3.88;1.13;;;;;;;25.28;58.18;100177.00;4983261;28;20058;-90
2023/09/08 05:59:04;;;;;;;9.10;2.47;;;;;;;25.51;57.92;100186.25;4988282;28;20512;-91
2023/09/08 06:01:31;;;;;;;3.30;1.95;;;;;;;25.25;56.92;100152.94;4972789;28;20126;-93
2023/09/08 06:03:57;;;;;;;6.15;2.67;;;;;;;25.00;58.21;100163.56;4985697;28;20061;-93
2023/09/08 06:06:22;;;;;;;1.27;1.02;;;;;;;25.01;58.35;100159.03;4982120;28;20058;-94
2023/09/08 06:08:51;;;;;;;3.38;1.80;;;;;;;25.03;58.65;100133.66;4977426;28;20046;-96
2023/09/08 06:11:16;;;;;;;1.73;1.55;;;;;;;24.99;59.07;100166.34;4971123;28;20061;-94
2023/09/08 06:13:43;;;;;;;2.17;1.52;;;;;;;24.88;58.82;100136.56;4972253;28;20054;-94
2023/09/08 06:16:09;;;;;;;5.55;2.13;;;;;;;25.36;58.91;100150.38;4983625;28;20126;-92
2023/09/08 06:18:39;;;;;;;3.53;1.65;;;;;;;25.98;57.58;100192.88;4980188;28;20576;-91
2023/09/08 06:21:06;;;;;;;2.47;2.10;;;;;;;25.88;56.81;100160.19;4980366;28;20045;-93
2023/09/08 06:23:33;;;;;;;2.75;1.73;;;;;;;25.90;56.15;100151.97;4977805;28;20153;-93
2023/09/08 06:25:59;;;;;;;6.32;1.70;;;;;;;25.78;56.51;100174.47;4982893;28;20033;-92
2023/09/08 06:28:26;;;;;;;4.25;2.13;;;;;;;26.06;55.75;100149.06;4968849;28;20486;-94
2023/09/08 06:30:52;;;;;;;3.40;1.60;;;;;;;26.44;55.17;100151.63;4964749;28;20121;-93
2023/09/08 06:33:17;;;;;;;9.75;2.45;;;;;;;26.54;54.11;100159.06;4969073;28;20633;-90
2023/09/08 06:35:43;;;;;;;3.63;1.73;;;;;;;26.40;54.25;100157.38;4974953;28;20041;-93
2023/09/08 06:38:08;;;;;;;1.63;1.30;;;;;;;26.58;53.65;100160.56;4989419;28;20031;-93
2023/09/08 06:40:34;;;;;;;2.55;1.67;;;;;;;27.06;53.06;100181.38;4968648;28;20057;-92
2023/09/08 06:42:59;;;;;;;6.47;1.65;;;;;;;27.26;51.65;100179.84;4968732;28;20041;-90
2023/09/08 06:45:25;;;;;;;1.55;1.38;;;;;;;26.85;51.67;100160.38;4986715;28;20489;-91
2023/09/08 06:47:54;;;;;;;4.25;1.35;;;;;;;26.89;52.75;100182.66;4975203;28;20022;-92
2023/09/08 06:50:23;;;;;;;2.78;2.28;;;;;;;27.23;51.02;100134.91;4993210;28;20026;-94
2023/09/08 06:52:49;;;;;;;3.22;1.52;;;;;;;27.60;48.74;100152.84;4975511;28;20033;-92
2023/09/08 06:55:16;;;;;;;2.72;1.48;;;;;;;28.18;47.72;100186.16;4978892;28;20042;-95
2023/09/08 06:57:45;;;;;;;8.68;1.60;;;;;;;28.44;47.42;100198.56;4961022;28;20416;-93
2023/09/08 07:00:12;;;;;;;3.00;1.45;;;;;;;28.44;47.98;100195.84;4958934;28;20108;-93
2023/09/08 07:02:41;;;;;;;3.55;1.92;;;;;;;28.48;47.40;100162.94;4969358;28;20042;-93
2023/09/08 07:05:08;;;;;;;1.55;0.93;;;;;;;28.60;45.50;100180.09;4992206;28;20034;-89
2023/09/08 07:07:47;;;;;;;2.55;1.23;;;;;;;28.25;45.81;100178.38;4975148;28;20035;-91
2023/09/08 07:10:12;;;;;;;6.63;1.35;;;;;;;29.04;44.93;100178.22;4970760;28;20151;-90
2023/09/08 07:12:38;;;;;;;1.73;1.45;;;;;;;29.43;42.51;100169.50;4975240;28;20561;-91
2023/09/08 07:15:04;;;;;;;2.45;2.15;;;;;;;29.27;41.69;100188.97;4972040;28;20023;-89
2023/09/08 07:17:29;;;;;;;4.15;1.75;;;;;;;29.48;41.74;100188.13;4974154;28;20034;-90
2023/09/08 07:19:55;;;;;;;4.97;2.40;;;;;;;29.78;41.24;100203.59;4980057;28;20034;-86
2023/09/08 07:22:20;;;;;;;3.85;2.33;;;;;;;29.57;39.71;100157.44;4985373;28;20061;-87
2023/09/08 07:24:46;;;;;;;2.67;2.00;;;;;;;29.43;39.77;100173.06;4976574;28;20093;-90
2023/09/08 07:27:14;;;;;;;1.83;1.33;;;;;;;29.75;40.25;100184.84;4976403;28;20408;-87
2023/09/08 07:29:40;;;;;;;4.03;1.92;;;;;;;29.56;41.18;100170.16;4972178;28;20042;-92
2023/09/08 07:32:07;;;;;;;2.75;1.80;;;;;;;30.06;42.05;100185.75;4953864;28;20035;-91
2023/09/08 07:34:33;;;;;;;2.75;1.67;;;;;;;30.23;42.02;100153.44;4958132;28;20043;-92
2023/09/08 07:37:00;;;;;;;4.13;1.92;;;;;;;30.88;41.07;100176.50;4972135;28;20039;-89
2023/09/08 07:39:26;;;;;;;3.28;1.60;;;;;;;30.47;37.49;100136.78;4989561;28;20053;-89
2023/09/08 07:41:52;;;;;;;2.88;1.67;;;;;;;30.26;36.76;100139.56;4989527;28;20394;-87
2023/09/08 07:44:17;;;;;;;2.50;1.20;;;;;;;30.64;35.22;100168.72;4979850;28;20031;-87
2023/09/08 07:46:44;;;;;;;1.92;1.15;;;;;;;30.73;36.96;100164.31;4986185;28;20078;-88
2023/09/08 07:49:09;;;;;;;2.90;1.30;;;;;;;30.64;36.14;100133.34;4987433;28;20100;-89
2023/09/08 07:51:35;;;;;;;1.83;0.82;;;;;;;30.55;34.90;100134.19;4970998;28;20467;-88
2023/09/08 07:54:03;;;;;;;6.70;1.00;;;;;;;30.32;36.75;100128.09;4984705;28;20054;-90
2023/09/08 07:56:28;;;;;;;1.30;0.85;;;;;;;30.48;35.43;100154.84;4974276;28;20046;-92
2023/09/08 07:58:54;;;;;;;1.95;0.90;;;;;;;30.52;36.71;100148.09;4970937;28;20022;-90
2023/09/08 08:01:19;;;;;;;1.20;0.95;;;;;;;30.59;36.69;100140.25;4981034;28;20023;-89
2023/09/08 08:03:45;;;;;;;2.03;1.27;;;;;;;30.33;35.53;100133.41;4954828;28;20465;-88
2023/09/08 08:06:10;;;;;;;3.70;1.48;;;;;;;30.42;35.71;100163.56;4985566;28;20023;-89
2023/09/08 08:08:38;;;;;;;2.70;1.02;;;;;;;29.81;36.12;100114.53;4971355;28;20172;-87
2023/09/08 08:11:11;;;;;;;2.25;1.83;;;;;;;29.94;36.79;100160.50;4983319;28;20026;-88
2023/09/08 08:13:38;;;;;;;1.50;1.15;;;;;;;30.00;37.91;100150.94;4973895;28;20038;-92
2023/09/08 08:16:11;;;;;;;1.33;0.82;;;;;;;30.26;36.31;100109.63;4973921;28;20597;-93
2023/09/08 08:18:37;;;;;;;1.45;0.85;;;;;;;30.93;34.07;100135.22;4975366;28;20043;-95
2023/09/08 08:21:03;;;;;;;2.38;1.35;;;;;;;30.79;36.47;100154.72;4975429;28;20034;-90
2023/09/08 08:23:30;;;;;;;1.63;1.17;;;;;;;30.43;35.88;100132.59;4980180;28;20030;-92
2023/09/08 08:25:57;;;;;;;3.35;1.10;;;;;;;30.41;36.26;100131.88;4974708;28;20056;-94
2023/09/08 08:28:24;;;;;;;2.75;1.60;;;;;;;30.10;34.93;100131.94;4974930;28;20094;-94
2023/09/08 08:30:50;;;;;;;2.15;1.70;;;;;;;29.48;35.02;100091.16;4992268;28;20042;-94
2023/09/08 08:33:15;;;;;;;1.92;1.17;;;;;;;29.85;35.02;100093.34;4956900;28;20430;-89
2023/09/08 08:35:41;;;;;;;1.48;0.85;;;;;;;30.12;35.54;100141.69;4989443;28;20030;-89
2023/09/08 08:38:06;;;;;;;1.38;1.00;;;;;;;29.85;34.85;100127.84;4988628;28;20041;-92
2023/09/08 08:40:33;;;;;;;1.52;0.98;;;;;;;29.50;35.04;100148.94;4970748;28;20133;-90
2023/09/08 08:43:00;;;;;;;1.17;0.82;;;;;;;29.30;35.87;100099.06;4979308;28;20106;-90
2023/09/08 08:45:26;;;;;;;1.65;1.35;;;;;;;29.67;35.15;100123.00;4970325;28;20027;-91
2023/09/08 08:47:53;;;;;;;2.05;1.20;;;;;;;29.91;35.02;100135.47;4969484;28;20039;-88
2023/09/08 08:50:20;;;;;;;3.38;1.27;;;;;;;30.09;35.23;100119.31;4952507;28;20068;-90
2023/09/08 08:52:45;;;;;;;2.65;1.23;;;;;;;29.85;34.49;100085.19;4952394;28;20156;-88
2023/09/08 08:55:12;;;;;;;1.90;1.35;;;;;;;30.02;37.00;100138.06;4952508;28;20118;-90
2023/09/08 08:57:40;;;;;;;1.35;1.05;;;;;;;30.16;32.19;100139.53;4970651;28;20031;-91
2023/09/08 09:00:12;;;;;;;1.75;0.73;;;;;;;30.53;31.88;100128.88;4969219;28;20035;-92
2023/09/08 09:02:43;;;;;;;1.85;0.90;;;;;;;30.25;31.76;100102.47;4952921;28;20034;-91
2023/09/08 09:05:13;;;;;;;0.70;0.45;;;;;;;30.14;31.82;100109.75;4970920;28;20042;-91
2023/09/08 09:07:42;;;;;;;1.50;0.63;;;;;;;29.97;32.37;100066.91;4950518;28;20030;-92
2023/09/08 09:10:08;;;;;;;0.98;0.52;;;;;;;30.17;32.58;100098.59;4952224;28;20038;-91
2023/09/08 09:12:35;;;;;;;2.03;0.95;;;;;;;30.36;31.75;100111.38;4968811;28;20774;-91
2023/09/08 09:15:04;;;;;;;3.28;1.00;;;;;;;30.69;32.73;100094.81;4951195;28;20038;-95
2023/09/08 09:17:30;;;;;;;2.40;1.48;;;;;;;30.85;32.77;100114.16;4951888;28;20520;-93
2023/09/08 09:20:17;;;;;;;1.08;0.98;;;;;;;30.11;32.29;100101.88;4953005;28;20062;-95
2023/09/08 09:22:43;;;;;;;1.05;0.70;;;;;;;29.54;32.89;100112.34;4951454;28;20031;-91
2023/09/08 09:25:10;;;;;;;1.58;1.33;;;;;;;29.09;33.99;100093.63;4954779;28;20105;-92
2023/09/08 09:27:38;;;;;;;0.90;0.70;;;;;;;28.78;34.08;100101.69;4923392;28;20134;-95
2023/09/08 09:30:04;;;;;;;1.30;0.68;;;;;;;29.06;33.38;100096.63;4971884;28;20358;-94
2023/09/08 09:32:31;;;;;;;4.85;3.33;;;;;;;29.12;35.73;100058.06;4952867;28;20047;-92
2023/09/08 09:35:00;;;;;;;2.83;1.27;;;;;;;29.69;33.87;100112.88;4953632;28;20031;-91
2023/09/08 09:37:26;;;;;;;3.30;0.98;;;;;;;29.16;32.56;100104.81;4976496;28;20034;-92
2023/09/08 09:39:54;;;;;;;2.05;0.95;;;;;;;28.92;33.61;100047.06;4972005;28;20105;-91
2023/09/08 09:42:20;;;;;;;0.98;0.43;;;;;;;29.33;32.04;100082.50;4991208;28;20065;-96
2023/09/08 09:44:51;;;;;;;1.10;0.65;;;;;;;29.81;33.36;100073.75;4988410;28;20034;-93
2023/09/08 09:47:22;;;;;;;1.25;0.80;;;;;;;30.25;32.19;100099.75;4967730;28;20129;-91
2023/09/08 09:49:49;;;;;;;1.10;0.65;;;;;;;30.45;32.47;100090.66;4954704;28;20046;-93
2023/09/08 09:52:22;;;;;;;0.77;0.65;;;;;;;30.63;30.57;100020.03;4972287;28;20045;-94
2023/09/08 09:54:56;;;;;;;1.20;0.70;;;;;;;30.89;30.82;100084.75;4969271;28;20027;-93
2023/09/08 09:57:23;;;;;;;0.93;0.65;;;;;;;30.50;30.65;100043.97;4974517;28;20592;-91
2023/09/08 09:59:50;;;;;;;0.77;0.73;;;;;;;29.98;31.18;100036.88;4991972;28;20061;-94
2023/09/08 10:02:21;;;;;;;2.42;1.13;;;;;;;29.53;32.20;100055.44;4972504;28;20179;-95
2023/09/08 10:04:50;;;;;;;0.70;0.70;;;;;;;29.09;32.72;100061.91;4974565;28;20468;-96
2023/09/08 10:07:18;;;;;;;1.27;0.80;;;;;;;29.70;32.85;100056.63;4974578;28;20051;-96
2023/09/08 10:09:44;;;;;;;0.63;0.45;;;;;;;29.71;32.35;100029.31;4940619;28;20038;-95
2023/09/08 10:12:15;;;;;;;2.55;2.33;;;;;;;30.00;31.45;100037.59;4958180;28;20031;-93
2023/09/08 10:14:42;;;;;;;0.63;0.63;;;;;;;29.90;31.62;100055.72;4959157;28;20121;-95
2023/09/08 10:17:16;;;;;;;2.40;1.52;;;;;;;29.69;32.40;100047.63;4976612;28;20034;-93
2023/09/08 10:19:44;;;;;;;1.33;1.02;;;;;;;29.73;31.91;100021.88;4975034;28;20045;-92
2023/09/08 10:22:15;;;;;;;3.35;1.00;;;;;;;29.87;31.51;99998.91;4994008;28;20038;-90
2023/09/08 10:24:44;;;;;;;0.70;0.63;;;;;;;30.16;31.29;100017.13;4993078;28;20069;-94
2023/09/08 10:27:11;;;;;;;2.65;1.20;;;;;;;30.22;30.48;99999.41;4962480;28;20045;-91
2023/09/08 10:29:40;;;;;;;1.50;0.90;;;;;;;30.33;31.99;99993.81;4976717;28;20041;-93
2023/09/08 10:32:08;;;;;;;1.10;0.90;;;;;;;30.06;30.81;99981.78;4958007;28;20362;-92
2023/09/08 10:34:35;;;;;;;1.77;1.10;;;;;;;29.79;30.16;100029.47;4958638;28;20039;-89
2023/09/08 10:37:00;;;;;;;1.02;0.70;;;;;;;29.50;30.61;99982.34;4956455;28;20039;-88
2023/09/08 10:39:38;;;;;;;0.88;0.85;;;;;;;29.64;29.91;100000.97;4983548;28;20121;-89
2023/09/08 10:42:33;;;;;;;0.93;0.93;;;;;;;29.61;30.42;100023.88;4975525;28;20391;-88
2023/09/08 10:45:04;;;;;;;1.98;0.88;;;;;;;29.87;31.25;100026.09;4896483;29;20055;-85
2023/09/08 10:47:41;;;;;;;0.80;0.80;;;;;;;30.18;30.54;99998.81;4895032;29;20036;-89
2023/09/08 10:50:08;;;;;;;2.20;1.42;;;;;;;29.93;29.55;99982.03;4894809;29;20087;-92
2023/09/08 10:52:35;;;;;;;1.08;0.75;;;;;;;30.10;29.88;100006.81;4896360;29;20037;-91
2023/09/08 10:55:01;;;;;;;1.30;0.70;;;;;;;30.08;29.43;99997.97;4882853;29;20044;-93
2023/09/08 10:57:27;;;;;;;2.40;0.82;;;;;;;29.82;31.09;99963.13;4880638;29;20099;-90
2023/09/08 10:59:55;;;;;;;1.27;1.17;;;;;;;30.18;31.63;100006.97;4895922;29;20100;-87
2023/09/08 11:02:54;;;;;;;1.27;0.50;;;;;;;30.13;32.16;100003.81;4894919;29;20064;-89
2023/09/08 11:05:21;;;;;;;2.40;1.15;;;;;;;29.76;32.24;100010.72;4895696;29;20040;-88
2023/09/08 11:07:52;;;;;;;1.75;1.17;;;;;;;29.50;32.38;99977.75;4895505;29;20055;-90
2023/09/08 11:10:17;;;;;;;7.10;1.67;;;;;;;29.62;32.55;99951.34;4894562;29;20036;-89
2023/09/08 11:12:43;;;;;;;2.03;1.10;;;;;;;29.67;31.75;99999.84;4893720;29;20127;-89
2023/09/08 11:15:09;;;;;;;4.18;2.03;;;;;;;29.40;32.92;99998.63;4896138;29;20044;-89
2023/09/08 11:17:41;;;;;;;1.25;0.63;;;;;;;28.86;33.49;99946.31;4895211;29;20112;-90
2023/09/08 11:20:09;;;;;;;1.23;0.75;;;;;;;29.10;34.49;99974.00;4881316;29;20040;-88
2023/09/08 11:22:36;;;;;;;0.85;0.60;;;;;;;29.35;33.92;99954.69;4987457;28;20034;-89
2023/09/08 11:25:04;;;;;;;1.33;0.70;;;;;;;29.54;32.44;99989.22;4993326;28;20034;-88
2023/09/08 11:27:30;;;;;;;1.55;0.90;;;;;;;29.65;32.46;99987.22;4985597;28;20029;-87
2023/09/08 11:29:57;;;;;;;0.85;0.82;;;;;;;29.54;32.54;99948.47;4989142;28;20042;-88
2023/09/08 11:32:23;;;;;;;1.55;0.98;;;;;;;29.57;31.80;99978.06;4987871;28;20030;-88
2023/09/08 11:34:49;;;;;;;4.55;2.55;;;;;;;29.28;32.05;99928.06;4982492;28;20129;-88
2023/09/08 11:37:17;;;;;;;2.05;1.00;;;;;;;29.56;32.31;99954.59;4978894;28;20026;-88